sensor_id;sensor_type;location;lat;lon;timestamp;temperature;humidity
2054;DHT22;1032;52.542;13.440;2022-08-03T00:00:53;22.90;68.20
2054;DHT22;1032;52.542;13.440;2022-08-03T00:03:20;22.90;68.20
2054;DHT22;1032;52.542;13.440;2022-08-03T00:05:47;22.90;68.00
2054;DHT22;1032;52.542;13.440;2022-08-03T00:08:13;23.00;68.10
2054;DHT22;1032;52.542;13.440;2022-08-03T00:10:40;22.90;68.10
2054;DHT22;1032;52.542;13.440;2022-08-03T00:13:06;23.00;68.50
2054;DHT22;1032;52.542;13.440;2022-08-03T00:15:33;23.00;68.70
2054;DHT22;1032;52.542;13.440;2022-08-03T00:18:01;22.90;68.70
2054;DHT22;1032;52.542;13.440;2022-08-03T00:20:27;22.90;68.80
2054;DHT22;1032;52.542;13.440;2022-08-03T00:22:54;22.90;68.90
2054;DHT22;1032;52.542;13.440;2022-08-03T00:25:20;22.90;68.90
2054;DHT22;1032;52.542;13.440;2022-08-03T00:27:47;22.90;68.80
2054;DHT22;1032;52.542;13.440;2022-08-03T00:30:14;23.00;68.90
2054;DHT22;1032;52.542;13.440;2022-08-03T00:32:40;23.00;68.90
2054;DHT22;1032;52.542;13.440;2022-08-03T00:35:08;23.10;69.10
2054;DHT22;1032;52.542;13.440;2022-08-03T00:37:35;23.10;69.20
2054;DHT22;1032;52.542;13.440;2022-08-03T00:40:02;23.00;69.30
2054;DHT22;1032;52.542;13.440;2022-08-03T00:42:29;23.00;69.50
2054;DHT22;1032;52.542;13.440;2022-08-03T00:44:56;22.60;69.20
2054;DHT22;1032;52.542;13.440;2022-08-03T00:47:22;22.90;69.80
2054;DHT22;1032;52.542;13.440;2022-08-03T00:49:49;22.90;70.00
2054;DHT22;1032;52.542;13.440;2022-08-03T00:52:17;22.90;70.10
2054;DHT22;1032;52.542;13.440;2022-08-03T00:54:43;22.90;70.30
2054;DHT22;1032;52.542;13.440;2022-08-03T00:57:10;22.90;70.50
2054;DHT22;1032;52.542;13.440;2022-08-03T00:59:36;22.80;70.60
2054;DHT22;1032;52.542;13.440;2022-08-03T01:02:04;22.80;70.80
2054;DHT22;1032;52.542;13.440;2022-08-03T01:04:31;22.80;71.00
2054;DHT22;1032;52.542;13.440;2022-08-03T01:07:05;22.70;71.10
2054;DHT22;1032;52.542;13.440;2022-08-03T01:09:40;22.40;71.00
2054;DHT22;1032;52.542;13.440;2022-08-03T01:12:13;22.70;71.60
2054;DHT22;1032;52.542;13.440;2022-08-03T01:14:50;22.70;71.70
2054;DHT22;1032;52.542;13.440;2022-08-03T01:17:24;22.70;71.90
2054;DHT22;1032;52.542;13.440;2022-08-03T01:19:58;22.30;71.80
2054;DHT22;1032;52.542;13.440;2022-08-03T01:22:44;22.80;72.40
2054;DHT22;1032;52.542;13.440;2022-08-03T01:25:25;22.60;72.20
2054;DHT22;1032;52.542;13.440;2022-08-03T01:28:04;22.70;72.20
2054;DHT22;1032;52.542;13.440;2022-08-03T01:30:37;22.70;72.20
2054;DHT22;1032;52.542;13.440;2022-08-03T01:33:09;22.70;72.20
2054;DHT22;1032;52.542;13.440;2022-08-03T01:35:43;22.60;72.00
2054;DHT22;1032;52.542;13.440;2022-08-03T01:38:12;22.70;72.20
2054;DHT22;1032;52.542;13.440;2022-08-03T01:40:40;22.60;72.00
2054;DHT22;1032;52.542;13.440;2022-08-03T01:43:13;22.70;72.00
2054;DHT22;1032;52.542;13.440;2022-08-03T01:45:42;22.70;72.00
2054;DHT22;1032;52.542;13.440;2022-08-03T01:48:11;22.80;72.20
2054;DHT22;1032;52.542;13.440;2022-08-03T01:50:39;22.70;72.00
2054;DHT22;1032;52.542;13.440;2022-08-03T01:53:06;22.70;71.90
2054;DHT22;1032;52.542;13.440;2022-08-03T01:55:35;22.80;72.00
2054;DHT22;1032;52.542;13.440;2022-08-03T01:58:03;22.80;72.40
2054;DHT22;1032;52.542;13.440;2022-08-03T02:00:32;22.70;72.50
2054;DHT22;1032;52.542;13.440;2022-08-03T02:03:04;22.70;72.50
2054;DHT22;1032;52.542;13.440;2022-08-03T02:05:31;22.70;72.40
2054;DHT22;1032;52.542;13.440;2022-08-03T02:07:59;22.80;72.40
2054;DHT22;1032;52.542;13.440;2022-08-03T02:10:27;22.80;72.50
2054;DHT22;1032;52.542;13.440;2022-08-03T02:12:56;22.70;72.50
2054;DHT22;1032;52.542;13.440;2022-08-03T02:15:25;22.70;72.70
2054;DHT22;1032;52.542;13.440;2022-08-03T02:17:53;22.70;72.80
2054;DHT22;1032;52.542;13.440;2022-08-03T02:20:21;22.70;72.50
2054;DHT22;1032;52.542;13.440;2022-08-03T02:22:49;22.70;72.30
2054;DHT22;1032;52.542;13.440;2022-08-03T02:25:16;22.80;72.40
2054;DHT22;1032;52.542;13.440;2022-08-03T02:27:49;22.80;72.50
2054;DHT22;1032;52.542;13.440;2022-08-03T02:30:17;22.80;72.80
2054;DHT22;1032;52.542;13.440;2022-08-03T02:32:50;22.70;72.80
2054;DHT22;1032;52.542;13.440;2022-08-03T02:35:18;22.70;72.90
2054;DHT22;1032;52.542;13.440;2022-08-03T02:37:50;22.70;73.00
2054;DHT22;1032;52.542;13.440;2022-08-03T02:40:18;22.70;73.10
2054;DHT22;1032;52.542;13.440;2022-08-03T02:42:47;22.70;73.10
2054;DHT22;1032;52.542;13.440;2022-08-03T02:45:16;22.70;73.20
2054;DHT22;1032;52.542;13.440;2022-08-03T02:47:44;22.60;73.10
2054;DHT22;1032;52.542;13.440;2022-08-03T02:50:15;22.30;72.70
2054;DHT22;1032;52.542;13.440;2022-08-03T02:52:44;22.70;73.30
2054;DHT22;1032;52.542;13.440;2022-08-03T02:55:13;22.50;73.10
2054;DHT22;1032;52.542;13.440;2022-08-03T02:57:42;22.60;74.10
2054;DHT22;1032;52.542;13.440;2022-08-03T03:00:10;22.70;73.30
2054;DHT22;1032;52.542;13.440;2022-08-03T03:02:39;22.60;73.20
2054;DHT22;1032;52.542;13.440;2022-08-03T03:05:07;22.20;72.90
2054;DHT22;1032;52.542;13.440;2022-08-03T03:07:37;22.60;73.20
2054;DHT22;1032;52.542;13.440;2022-08-03T03:10:04;22.60;72.80
2054;DHT22;1032;52.542;13.440;2022-08-03T03:12:35;22.60;72.40
2054;DHT22;1032;52.542;13.440;2022-08-03T03:15:02;22.60;72.10
2054;DHT22;1032;52.542;13.440;2022-08-03T03:17:31;22.60;71.90
2054;DHT22;1032;52.542;13.440;2022-08-03T03:19:58;22.60;71.70
2054;DHT22;1032;52.542;13.440;2022-08-03T03:22:26;22.60;71.60
2054;DHT22;1032;52.542;13.440;2022-08-03T03:24:53;22.60;71.90
2054;DHT22;1032;52.542;13.440;2022-08-03T03:27:21;22.60;72.10
2054;DHT22;1032;52.542;13.440;2022-08-03T03:29:49;22.60;72.20
2054;DHT22;1032;52.542;13.440;2022-08-03T03:32:16;22.50;72.30
2054;DHT22;1032;52.542;13.440;2022-08-03T03:34:43;22.50;72.50
2054;DHT22;1032;52.542;13.440;2022-08-03T03:37:10;22.50;72.70
2054;DHT22;1032;52.542;13.440;2022-08-03T03:39:37;22.00;72.40
2054;DHT22;1032;52.542;13.440;2022-08-03T03:42:04;22.40;73.30
2054;DHT22;1032;52.542;13.440;2022-08-03T03:44:31;22.40;73.60
2054;DHT22;1032;52.542;13.440;2022-08-03T03:46:59;22.40;73.70
2054;DHT22;1032;52.542;13.440;2022-08-03T03:49:26;22.30;73.90
2054;DHT22;1032;52.542;13.440;2022-08-03T03:51:53;22.30;74.20
2054;DHT22;1032;52.542;13.440;2022-08-03T03:54:19;22.30;74.40
2054;DHT22;1032;52.542;13.440;2022-08-03T03:56:46;22.30;74.50
2054;DHT22;1032;52.542;13.440;2022-08-03T03:59:13;22.20;74.60
2054;DHT22;1032;52.542;13.440;2022-08-03T04:01:39;22.30;75.00
2054;DHT22;1032;52.542;13.440;2022-08-03T04:04:07;22.20;75.10
2054;DHT22;1032;52.542;13.440;2022-08-03T04:06:48;22.10;75.20
2054;DHT22;1032;52.542;13.440;2022-08-03T04:09:34;22.20;75.70
2054;DHT22;1032;52.542;13.440;2022-08-03T04:12:22;22.10;75.60
2054;DHT22;1032;52.542;13.440;2022-08-03T04:14:51;22.20;75.90
2054;DHT22;1032;52.542;13.440;2022-08-03T04:17:21;22.20;76.10
2054;DHT22;1032;52.542;13.440;2022-08-03T04:19:53;22.20;76.10
2054;DHT22;1032;52.542;13.440;2022-08-03T04:22:23;22.20;76.00
2054;DHT22;1032;52.542;13.440;2022-08-03T04:24:54;22.30;76.20
2054;DHT22;1032;52.542;13.440;2022-08-03T04:27:25;22.40;77.00
2054;DHT22;1032;52.542;13.440;2022-08-03T04:29:54;22.50;76.00
2054;DHT22;1032;52.542;13.440;2022-08-03T04:32:22;22.50;75.80
2054;DHT22;1032;52.542;13.440;2022-08-03T04:34:54;22.80;75.70
2054;DHT22;1032;52.542;13.440;2022-08-03T04:37:25;22.90;75.30
2054;DHT22;1032;52.542;13.440;2022-08-03T04:39:55;23.00;74.70
2054;DHT22;1032;52.542;13.440;2022-08-03T04:42:24;23.20;74.10
2054;DHT22;1032;52.542;13.440;2022-08-03T04:44:53;23.30;73.50
2054;DHT22;1032;52.542;13.440;2022-08-03T04:47:21;23.40;72.80
2054;DHT22;1032;52.542;13.440;2022-08-03T04:49:48;23.50;72.20
2054;DHT22;1032;52.542;13.440;2022-08-03T04:52:16;23.60;71.50
2054;DHT22;1032;52.542;13.440;2022-08-03T04:54:44;23.70;71.20
2054;DHT22;1032;52.542;13.440;2022-08-03T04:57:11;23.80;70.60
2054;DHT22;1032;52.542;13.440;2022-08-03T04:59:38;23.90;69.90
2054;DHT22;1032;52.542;13.440;2022-08-03T05:02:04;24.00;69.70
2054;DHT22;1032;52.542;13.440;2022-08-03T05:04:31;24.10;69.40
2054;DHT22;1032;52.542;13.440;2022-08-03T05:06:58;24.10;68.80
2054;DHT22;1032;52.542;13.440;2022-08-03T05:09:25;24.20;68.60
2054;DHT22;1032;52.542;13.440;2022-08-03T05:11:52;24.30;68.30
2054;DHT22;1032;52.542;13.440;2022-08-03T05:14:19;24.30;67.80
2054;DHT22;1032;52.542;13.440;2022-08-03T05:16:46;24.40;67.30
2054;DHT22;1032;52.542;13.440;2022-08-03T05:19:13;24.50;67.10
2054;DHT22;1032;52.542;13.440;2022-08-03T05:21:39;24.50;66.70
2054;DHT22;1032;52.542;13.440;2022-08-03T05:24:06;24.60;66.50
2054;DHT22;1032;52.542;13.440;2022-08-03T05:26:34;24.70;66.20
2054;DHT22;1032;52.542;13.440;2022-08-03T05:29:00;24.80;65.90
2054;DHT22;1032;52.542;13.440;2022-08-03T05:31:27;24.80;65.60
2054;DHT22;1032;52.542;13.440;2022-08-03T05:33:54;24.90;65.20
2054;DHT22;1032;52.542;13.440;2022-08-03T05:36:22;25.00;64.90
2054;DHT22;1032;52.542;13.440;2022-08-03T05:38:48;25.00;64.60
2054;DHT22;1032;52.542;13.440;2022-08-03T05:41:15;25.20;64.20
2054;DHT22;1032;52.542;13.440;2022-08-03T05:43:43;25.20;63.90
2054;DHT22;1032;52.542;13.440;2022-08-03T05:46:10;25.30;63.60
2054;DHT22;1032;52.542;13.440;2022-08-03T05:48:36;25.30;63.10
2054;DHT22;1032;52.542;13.440;2022-08-03T05:51:03;25.40;62.40
2054;DHT22;1032;52.542;13.440;2022-08-03T05:53:32;25.40;61.70
2054;DHT22;1032;52.542;13.440;2022-08-03T05:55:58;25.50;61.70
2054;DHT22;1032;52.542;13.440;2022-08-03T05:58:25;25.60;61.50
2054;DHT22;1032;52.542;13.440;2022-08-03T06:00:53;25.70;61.10
2054;DHT22;1032;52.542;13.440;2022-08-03T06:03:20;25.80;60.70
2054;DHT22;1032;52.542;13.440;2022-08-03T06:05:46;25.90;60.30
2054;DHT22;1032;52.542;13.440;2022-08-03T06:08:13;26.00;60.30
2054;DHT22;1032;52.542;13.440;2022-08-03T06:10:39;26.10;59.80
2054;DHT22;1032;52.542;13.440;2022-08-03T06:13:06;26.10;59.40
2054;DHT22;1032;52.542;13.440;2022-08-03T06:15:33;26.20;59.20
2054;DHT22;1032;52.542;13.440;2022-08-03T06:18:01;26.20;58.60
2054;DHT22;1032;52.542;13.440;2022-08-03T06:20:27;26.30;58.20
2054;DHT22;1032;52.542;13.440;2022-08-03T06:22:54;26.40;58.10
2054;DHT22;1032;52.542;13.440;2022-08-03T06:25:21;26.50;57.90
2054;DHT22;1032;52.542;13.440;2022-08-03T06:27:48;26.50;57.80
2054;DHT22;1032;52.542;13.440;2022-08-03T06:30:14;26.60;57.80
2054;DHT22;1032;52.542;13.440;2022-08-03T06:32:42;26.60;57.60
2054;DHT22;1032;52.542;13.440;2022-08-03T06:35:10;26.70;57.40
2054;DHT22;1032;52.542;13.440;2022-08-03T06:37:43;26.70;57.70
2054;DHT22;1032;52.542;13.440;2022-08-03T06:40:11;26.80;57.10
2054;DHT22;1032;52.542;13.440;2022-08-03T06:42:37;26.80;56.90
2054;DHT22;1032;52.542;13.440;2022-08-03T06:45:05;26.90;56.80
2054;DHT22;1032;52.542;13.440;2022-08-03T06:47:33;26.90;56.70
2054;DHT22;1032;52.542;13.440;2022-08-03T06:50:00;26.90;56.40
2054;DHT22;1032;52.542;13.440;2022-08-03T06:52:28;26.90;56.30
2054;DHT22;1032;52.542;13.440;2022-08-03T06:54:54;27.00;56.40
2054;DHT22;1032;52.542;13.440;2022-08-03T06:57:21;27.00;56.40
2054;DHT22;1032;52.542;13.440;2022-08-03T06:59:48;27.00;56.60
2054;DHT22;1032;52.542;13.440;2022-08-03T07:02:15;27.10;56.50
2054;DHT22;1032;52.542;13.440;2022-08-03T07:04:43;27.10;56.20
2054;DHT22;1032;52.542;13.440;2022-08-03T07:07:09;27.10;56.20
2054;DHT22;1032;52.542;13.440;2022-08-03T07:09:37;27.10;56.00
2054;DHT22;1032;52.542;13.440;2022-08-03T07:12:04;27.20;55.90
2054;DHT22;1032;52.542;13.440;2022-08-03T07:14:31;27.20;55.70
2054;DHT22;1032;52.542;13.440;2022-08-03T07:16:57;27.20;55.70
2054;DHT22;1032;52.542;13.440;2022-08-03T07:19:24;27.30;55.80
2054;DHT22;1032;52.542;13.440;2022-08-03T07:21:51;27.30;55.80
2054;DHT22;1032;52.542;13.440;2022-08-03T07:24:17;27.30;55.80
2054;DHT22;1032;52.542;13.440;2022-08-03T07:26:45;27.40;55.80
2054;DHT22;1032;52.542;13.440;2022-08-03T07:29:12;27.40;55.70
2054;DHT22;1032;52.542;13.440;2022-08-03T07:31:39;27.40;55.60
2054;DHT22;1032;52.542;13.440;2022-08-03T07:34:06;27.50;55.50
2054;DHT22;1032;52.542;13.440;2022-08-03T07:36:33;27.50;55.40
2054;DHT22;1032;52.542;13.440;2022-08-03T07:38:59;27.50;55.40
2054;DHT22;1032;52.542;13.440;2022-08-03T07:41:26;27.60;55.30
2054;DHT22;1032;52.542;13.440;2022-08-03T07:43:54;27.60;55.40
2054;DHT22;1032;52.542;13.440;2022-08-03T07:46:20;27.60;55.60
2054;DHT22;1032;52.542;13.440;2022-08-03T07:48:47;27.70;55.40
2054;DHT22;1032;52.542;13.440;2022-08-03T07:51:14;27.70;55.10
2054;DHT22;1032;52.542;13.440;2022-08-03T07:53:40;27.80;55.00
2054;DHT22;1032;52.542;13.440;2022-08-03T07:56:07;27.80;54.80
2054;DHT22;1032;52.542;13.440;2022-08-03T07:58:34;27.80;54.70
2054;DHT22;1032;52.542;13.440;2022-08-03T08:01:02;27.90;54.60
2054;DHT22;1032;52.542;13.440;2022-08-03T08:03:29;27.90;54.40
2054;DHT22;1032;52.542;13.440;2022-08-03T08:05:56;27.90;54.30
2054;DHT22;1032;52.542;13.440;2022-08-03T08:08:22;27.90;54.20
2054;DHT22;1032;52.542;13.440;2022-08-03T08:10:49;28.00;54.10
2054;DHT22;1032;52.542;13.440;2022-08-03T08:13:16;28.00;54.30
2054;DHT22;1032;52.542;13.440;2022-08-03T08:15:42;28.00;54.00
2054;DHT22;1032;52.542;13.440;2022-08-03T08:18:10;28.00;53.50
2054;DHT22;1032;52.542;13.440;2022-08-03T08:20:37;28.10;53.60
2054;DHT22;1032;52.542;13.440;2022-08-03T08:23:05;28.10;53.40
2054;DHT22;1032;52.542;13.440;2022-08-03T08:25:33;28.10;53.20
2054;DHT22;1032;52.542;13.440;2022-08-03T08:27:59;28.10;53.40
2054;DHT22;1032;52.542;13.440;2022-08-03T08:30:28;28.10;53.10
2054;DHT22;1032;52.542;13.440;2022-08-03T08:32:55;28.20;52.60
2054;DHT22;1032;52.542;13.440;2022-08-03T08:35:24;28.30;52.50
2054;DHT22;1032;52.542;13.440;2022-08-03T08:37:51;28.30;52.20
2054;DHT22;1032;52.542;13.440;2022-08-03T08:40:20;28.30;52.10
2054;DHT22;1032;52.542;13.440;2022-08-03T08:42:47;28.40;52.20
2054;DHT22;1032;52.542;13.440;2022-08-03T08:45:13;28.40;52.10
2054;DHT22;1032;52.542;13.440;2022-08-03T08:47:44;28.40;52.00
2054;DHT22;1032;52.542;13.440;2022-08-03T08:50:11;28.50;51.30
2054;DHT22;1032;52.542;13.440;2022-08-03T08:52:40;28.50;51.30
2054;DHT22;1032;52.542;13.440;2022-08-03T08:55:09;28.50;51.40
2054;DHT22;1032;52.542;13.440;2022-08-03T08:57:37;28.50;51.20
2054;DHT22;1032;52.542;13.440;2022-08-03T09:00:08;28.60;51.40
2054;DHT22;1032;52.542;13.440;2022-08-03T09:02:38;28.60;51.50
2054;DHT22;1032;52.542;13.440;2022-08-03T09:05:09;28.60;51.50
2054;DHT22;1032;52.542;13.440;2022-08-03T09:07:36;28.50;51.00
2054;DHT22;1032;52.542;13.440;2022-08-03T09:10:05;28.70;51.10
2054;DHT22;1032;52.542;13.440;2022-08-03T09:12:36;28.70;51.00
2054;DHT22;1032;52.542;13.440;2022-08-03T09:15:15;28.70;51.10
2054;DHT22;1032;52.542;13.440;2022-08-03T09:17:42;28.80;51.20
2054;DHT22;1032;52.542;13.440;2022-08-03T09:20:10;28.80;51.30
2054;DHT22;1032;52.542;13.440;2022-08-03T09:22:50;28.80;50.90
2054;DHT22;1032;52.542;13.440;2022-08-03T09:25:19;28.90;50.50
2054;DHT22;1032;52.542;13.440;2022-08-03T09:27:51;28.90;50.80
2054;DHT22;1032;52.542;13.440;2022-08-03T09:30:19;28.90;50.80
2054;DHT22;1032;52.542;13.440;2022-08-03T09:32:46;28.90;50.50
2054;DHT22;1032;52.542;13.440;2022-08-03T09:35:13;28.90;50.40
2054;DHT22;1032;52.542;13.440;2022-08-03T09:37:39;28.90;50.40
2054;DHT22;1032;52.542;13.440;2022-08-03T09:40:07;28.90;50.40
2054;DHT22;1032;52.542;13.440;2022-08-03T09:42:35;29.00;50.20
2054;DHT22;1032;52.542;13.440;2022-08-03T09:45:04;29.00;50.00
2054;DHT22;1032;52.542;13.440;2022-08-03T09:47:33;29.00;50.00
2054;DHT22;1032;52.542;13.440;2022-08-03T09:50:04;29.10;50.00
2054;DHT22;1032;52.542;13.440;2022-08-03T09:52:33;29.10;49.90
2054;DHT22;1032;52.542;13.440;2022-08-03T09:55:01;29.10;49.60
2054;DHT22;1032;52.542;13.440;2022-08-03T09:57:29;29.10;49.70
2054;DHT22;1032;52.542;13.440;2022-08-03T10:00:07;29.10;49.60
2054;DHT22;1032;52.542;13.440;2022-08-03T10:02:40;29.20;49.40
2054;DHT22;1032;52.542;13.440;2022-08-03T10:05:08;29.20;49.50
2054;DHT22;1032;52.542;13.440;2022-08-03T10:07:42;29.20;49.60
2054;DHT22;1032;52.542;13.440;2022-08-03T10:10:09;29.30;49.80
2054;DHT22;1032;52.542;13.440;2022-08-03T10:12:36;29.30;49.60
2054;DHT22;1032;52.542;13.440;2022-08-03T10:15:06;29.30;49.60
2054;DHT22;1032;52.542;13.440;2022-08-03T10:17:33;29.30;49.70
2054;DHT22;1032;52.542;13.440;2022-08-03T10:20:00;29.30;49.50
2054;DHT22;1032;52.542;13.440;2022-08-03T10:22:31;29.30;49.40
2054;DHT22;1032;52.542;13.440;2022-08-03T10:24:59;29.40;49.50
2054;DHT22;1032;52.542;13.440;2022-08-03T10:27:29;29.40;49.70
2054;DHT22;1032;52.542;13.440;2022-08-03T10:30:00;29.40;49.50
2054;DHT22;1032;52.542;13.440;2022-08-03T10:32:33;29.50;49.50
2054;DHT22;1032;52.542;13.440;2022-08-03T10:35:03;29.50;49.00
2054;DHT22;1032;52.542;13.440;2022-08-03T10:37:33;29.60;49.20
2054;DHT22;1032;52.542;13.440;2022-08-03T10:40:02;29.50;49.10
2054;DHT22;1032;52.542;13.440;2022-08-03T10:42:30;29.60;49.00
2054;DHT22;1032;52.542;13.440;2022-08-03T10:45:03;29.60;49.40
2054;DHT22;1032;52.542;13.440;2022-08-03T10:47:32;29.60;49.30
2054;DHT22;1032;52.542;13.440;2022-08-03T10:50:00;29.70;49.00
2054;DHT22;1032;52.542;13.440;2022-08-03T10:52:27;29.70;48.60
2054;DHT22;1032;52.542;13.440;2022-08-03T10:54:53;29.80;48.80
2054;DHT22;1032;52.542;13.440;2022-08-03T10:57:42;29.70;48.60
2054;DHT22;1032;52.542;13.440;2022-08-03T11:00:09;29.80;48.40
2054;DHT22;1032;52.542;13.440;2022-08-03T11:03:03;29.80;48.50
2054;DHT22;1032;52.542;13.440;2022-08-03T11:05:33;29.80;48.20
2054;DHT22;1032;52.542;13.440;2022-08-03T11:08:33;29.90;48.30
2054;DHT22;1032;52.542;13.440;2022-08-03T11:11:02;29.90;48.10
2054;DHT22;1032;52.542;13.440;2022-08-03T11:13:56;29.90;48.10
2054;DHT22;1032;52.542;13.440;2022-08-03T11:16:25;30.00;48.20
2054;DHT22;1032;52.542;13.440;2022-08-03T11:18:58;30.00;48.70
2054;DHT22;1032;52.542;13.440;2022-08-03T11:24:59;30.10;47.50
2054;DHT22;1032;52.542;13.440;2022-08-03T11:27:30;30.10;47.50
2054;DHT22;1032;52.542;13.440;2022-08-03T11:29:59;30.10;47.70
2054;DHT22;1032;52.542;13.440;2022-08-03T11:32:52;30.10;47.70
2054;DHT22;1032;52.542;13.440;2022-08-03T11:35:21;30.20;47.50
2054;DHT22;1032;52.542;13.440;2022-08-03T11:38:06;30.30;47.50
2054;DHT22;1032;52.542;13.440;2022-08-03T11:40:38;30.30;47.00
2054;DHT22;1032;52.542;13.440;2022-08-03T11:43:06;30.30;47.30
2054;DHT22;1032;52.542;13.440;2022-08-03T11:45:33;30.40;47.60
2054;DHT22;1032;52.542;13.440;2022-08-03T11:48:11;30.40;47.20
2054;DHT22;1032;52.542;13.440;2022-08-03T11:50:40;30.50;47.10
2054;DHT22;1032;52.542;13.440;2022-08-03T11:53:13;30.50;47.10
2054;DHT22;1032;52.542;13.440;2022-08-03T11:55:40;30.50;46.90
2054;DHT22;1032;52.542;13.440;2022-08-03T11:58:15;30.50;47.00
2054;DHT22;1032;52.542;13.440;2022-08-03T12:00:41;30.50;47.50
2054;DHT22;1032;52.542;13.440;2022-08-03T12:03:09;30.50;46.90
2054;DHT22;1032;52.542;13.440;2022-08-03T12:05:41;30.50;46.90
2054;DHT22;1032;52.542;13.440;2022-08-03T12:08:10;30.50;46.70
2054;DHT22;1032;52.542;13.440;2022-08-03T12:10:38;30.50;46.70
2054;DHT22;1032;52.542;13.440;2022-08-03T12:13:06;30.30;46.50
2054;DHT22;1032;52.542;13.440;2022-08-03T12:15:35;30.50;46.70
2054;DHT22;1032;52.542;13.440;2022-08-03T12:18:03;30.50;46.90
2054;DHT22;1032;52.542;13.440;2022-08-03T12:20:31;30.50;47.20
2054;DHT22;1032;52.542;13.440;2022-08-03T12:23:03;30.60;47.30
2054;DHT22;1032;52.542;13.440;2022-08-03T12:25:31;30.60;47.10
2054;DHT22;1032;52.542;13.440;2022-08-03T12:28:14;30.70;46.90
2054;DHT22;1032;52.542;13.440;2022-08-03T12:30:44;30.80;47.00
2054;DHT22;1032;52.542;13.440;2022-08-03T12:33:22;30.70;46.80
2054;DHT22;1032;52.542;13.440;2022-08-03T12:36:00;30.80;46.70
2054;DHT22;1032;52.542;13.440;2022-08-03T12:38:30;30.70;46.70
2054;DHT22;1032;52.542;13.440;2022-08-03T12:41:03;30.80;46.60
2054;DHT22;1032;52.542;13.440;2022-08-03T12:43:30;30.90;46.50
2054;DHT22;1032;52.542;13.440;2022-08-03T12:46:13;30.80;46.50
2054;DHT22;1032;52.542;13.440;2022-08-03T12:49:04;30.90;46.50
2054;DHT22;1032;52.542;13.440;2022-08-03T12:51:33;30.90;46.50
2054;DHT22;1032;52.542;13.440;2022-08-03T12:54:02;30.90;46.80
2054;DHT22;1032;52.542;13.440;2022-08-03T12:56:29;30.90;46.70
2054;DHT22;1032;52.542;13.440;2022-08-03T12:58:56;31.00;46.70
2054;DHT22;1032;52.542;13.440;2022-08-03T13:01:23;31.00;46.60
2054;DHT22;1032;52.542;13.440;2022-08-03T13:03:52;31.00;46.40
2054;DHT22;1032;52.542;13.440;2022-08-03T13:06:21;31.00;46.30
2054;DHT22;1032;52.542;13.440;2022-08-03T13:08:49;31.00;46.40
2054;DHT22;1032;52.542;13.440;2022-08-03T13:11:19;31.00;46.40
2054;DHT22;1032;52.542;13.440;2022-08-03T13:13:46;31.10;46.50
2054;DHT22;1032;52.542;13.440;2022-08-03T13:16:13;31.10;46.40
2054;DHT22;1032;52.542;13.440;2022-08-03T13:18:40;31.10;46.30
2054;DHT22;1032;52.542;13.440;2022-08-03T13:21:06;31.10;46.30
2054;DHT22;1032;52.542;13.440;2022-08-03T13:23:33;31.20;46.30
2054;DHT22;1032;52.542;13.440;2022-08-03T13:26:00;31.20;46.20
2054;DHT22;1032;52.542;13.440;2022-08-03T13:28:28;31.30;46.40
2054;DHT22;1032;52.542;13.440;2022-08-03T13:30:54;31.30;46.60
2054;DHT22;1032;52.542;13.440;2022-08-03T13:33:21;31.30;46.40
2054;DHT22;1032;52.542;13.440;2022-08-03T13:35:48;31.40;46.50
2054;DHT22;1032;52.542;13.440;2022-08-03T13:38:14;31.40;46.50
2054;DHT22;1032;52.542;13.440;2022-08-03T13:40:41;31.40;46.50
2054;DHT22;1032;52.542;13.440;2022-08-03T13:43:07;31.40;46.50
2054;DHT22;1032;52.542;13.440;2022-08-03T13:45:35;31.40;46.30
2054;DHT22;1032;52.542;13.440;2022-08-03T13:48:02;31.40;46.40
2054;DHT22;1032;52.542;13.440;2022-08-03T13:50:29;31.40;46.30
2054;DHT22;1032;52.542;13.440;2022-08-03T13:52:56;31.40;46.20
2054;DHT22;1032;52.542;13.440;2022-08-03T13:55:23;31.40;46.40
2054;DHT22;1032;52.542;13.440;2022-08-03T13:57:50;31.40;46.40
2054;DHT22;1032;52.542;13.440;2022-08-03T14:00:17;31.40;46.30
2054;DHT22;1032;52.542;13.440;2022-08-03T14:02:49;31.50;46.30
2054;DHT22;1032;52.542;13.440;2022-08-03T14:05:16;31.50;46.50
2054;DHT22;1032;52.542;13.440;2022-08-03T14:07:43;31.50;46.70
2054;DHT22;1032;52.542;13.440;2022-08-03T14:10:10;31.50;46.70
2054;DHT22;1032;52.542;13.440;2022-08-03T14:12:36;31.50;46.60
2054;DHT22;1032;52.542;13.440;2022-08-03T14:15:04;31.50;46.30
2054;DHT22;1032;52.542;13.440;2022-08-03T14:17:34;31.50;46.50
2054;DHT22;1032;52.542;13.440;2022-08-03T14:20:03;31.50;46.20
2054;DHT22;1032;52.542;13.440;2022-08-03T14:22:30;31.50;46.20
2054;DHT22;1032;52.542;13.440;2022-08-03T14:24:57;31.50;46.20
2054;DHT22;1032;52.542;13.440;2022-08-03T14:27:24;31.50;46.30
2054;DHT22;1032;52.542;13.440;2022-08-03T14:29:50;31.50;46.50
2054;DHT22;1032;52.542;13.440;2022-08-03T14:32:17;31.50;46.80
2054;DHT22;1032;52.542;13.440;2022-08-03T14:34:44;31.50;46.60
2054;DHT22;1032;52.542;13.440;2022-08-03T14:37:12;31.50;46.40
2054;DHT22;1032;52.542;13.440;2022-08-03T14:39:38;31.50;46.50
2054;DHT22;1032;52.542;13.440;2022-08-03T14:42:05;31.50;46.70
2054;DHT22;1032;52.542;13.440;2022-08-03T14:44:32;31.50;46.70
2054;DHT22;1032;52.542;13.440;2022-08-03T14:46:58;31.50;46.50
2054;DHT22;1032;52.542;13.440;2022-08-03T14:49:25;31.50;46.20
2054;DHT22;1032;52.542;13.440;2022-08-03T14:51:51;31.50;46.30
2054;DHT22;1032;52.542;13.440;2022-08-03T14:54:20;31.50;46.40
2054;DHT22;1032;52.542;13.440;2022-08-03T14:56:46;31.50;46.50
2054;DHT22;1032;52.542;13.440;2022-08-03T14:59:13;31.50;46.40
2054;DHT22;1032;52.542;13.440;2022-08-03T15:01:39;31.60;46.40
2054;DHT22;1032;52.542;13.440;2022-08-03T15:04:06;31.60;46.50
2054;DHT22;1032;52.542;13.440;2022-08-03T15:06:33;31.70;46.30
2054;DHT22;1032;52.542;13.440;2022-08-03T15:08:59;31.70;46.10
2054;DHT22;1032;52.542;13.440;2022-08-03T15:11:27;31.70;46.50
2054;DHT22;1032;52.542;13.440;2022-08-03T15:13:53;31.70;45.90
2054;DHT22;1032;52.542;13.440;2022-08-03T15:16:20;31.70;45.80
2054;DHT22;1032;52.542;13.440;2022-08-03T15:18:47;31.70;45.80
2054;DHT22;1032;52.542;13.440;2022-08-03T15:21:13;31.70;45.90
2054;DHT22;1032;52.542;13.440;2022-08-03T15:23:40;31.70;45.80
2054;DHT22;1032;52.542;13.440;2022-08-03T15:26:06;31.70;45.70
2054;DHT22;1032;52.542;13.440;2022-08-03T15:28:34;31.70;45.80
2054;DHT22;1032;52.542;13.440;2022-08-03T15:31:01;31.70;45.80
2054;DHT22;1032;52.542;13.440;2022-08-03T15:33:28;31.60;45.60
2054;DHT22;1032;52.542;13.440;2022-08-03T15:35:55;31.70;45.60
2054;DHT22;1032;52.542;13.440;2022-08-03T15:38:21;31.70;45.60
2054;DHT22;1032;52.542;13.440;2022-08-03T15:40:48;31.70;45.70
2054;DHT22;1032;52.542;13.440;2022-08-03T15:43:15;31.70;45.60
2054;DHT22;1032;52.542;13.440;2022-08-03T15:45:43;31.70;45.60
2054;DHT22;1032;52.542;13.440;2022-08-03T15:48:09;31.70;45.80
2054;DHT22;1032;52.542;13.440;2022-08-03T15:50:36;31.80;45.70
2054;DHT22;1032;52.542;13.440;2022-08-03T15:53:03;31.80;45.80
2054;DHT22;1032;52.542;13.440;2022-08-03T15:55:29;31.80;45.90
2054;DHT22;1032;52.542;13.440;2022-08-03T15:57:56;31.80;45.70